Time;durP1;ratioP1;P1;durP2;ratioP2;P2;SDS_P1;SDS_P2;PMS_P1;PMS_P2;Temp;Humidity;BMP_temperature;BMP_pressure;BME280_temperature;BME280_humidity;BME280_pressure;Samples;Min_cycle;Max_cycle;Signal;HPM_P1;HPM_P2
2023/02/20 00:00:47;;;;;;;1999.90;999.90;;;6.70;99.90;;;;;;5015210;28;20178;-69
2023/02/20 00:03:15;;;;;;;1999.90;999.90;;;6.80;99.90;;;;;;5015274;28;20204;-69
2023/02/20 00:05:40;;;;;;;1999.90;999.90;;;6.70;99.90;;;;;;5015166;28;20200;-69
2023/02/20 00:08:06;;;;;;;1999.90;999.90;;;6.70;99.90;;;;;;5015246;28;20419;-68
2023/02/20 00:10:32;;;;;;;1999.90;999.90;;;6.60;99.90;;;;;;5015005;28;20667;-69
2023/02/20 00:12:57;;;;;;;1999.90;999.90;;;6.70;99.90;;;;;;5015164;28;20191;-70
2023/02/20 00:15:23;;;;;;;1999.90;999.90;;;6.60;99.90;;;;;;5014809;28;20582;-70
2023/02/20 00:17:51;;;;;;;1999.90;999.90;;;6.60;99.90;;;;;;5014916;28;20173;-69
2023/02/20 00:20:21;;;;;;;1999.90;999.90;;;6.60;99.90;;;;;;5014893;28;20415;-69
2023/02/20 00:22:47;;;;;;;1999.90;999.90;;;6.60;99.90;;;;;;5014612;28;20502;-68
2023/02/20 00:25:15;;;;;;;1999.90;999.90;;;6.60;99.90;;;;;;5014716;28;20424;-69
2023/02/20 00:27:42;;;;;;;1999.90;999.90;;;6.50;99.90;;;;;;5014736;28;20920;-67
2023/02/20 00:30:14;;;;;;;1999.90;999.90;;;6.60;99.90;;;;;;5014801;28;20495;-69
2023/02/20 00:32:39;;;;;;;1999.90;999.90;;;6.60;99.90;;;;;;5014549;28;20779;-69
2023/02/20 00:35:05;;;;;;;1999.90;999.90;;;6.60;99.90;;;;;;5014612;28;20424;-68
2023/02/20 00:37:31;;;;;;;1999.90;999.90;;;6.70;99.90;;;;;;5014672;28;20592;-69
2023/02/20 00:39:56;;;;;;;1999.90;999.90;;;6.70;99.90;;;;;;5014617;28;20503;-68
2023/02/20 00:42:22;;;;;;;1999.90;999.90;;;6.70;99.90;;;;;;5014319;28;20557;-68
2023/02/20 00:44:47;;;;;;;1999.90;999.90;;;6.90;99.90;;;;;;5014463;28;20235;-68
2023/02/20 00:47:13;;;;;;;1999.90;999.90;;;6.70;99.90;;;;;;5014371;28;20173;-68
2023/02/20 00:49:38;;;;;;;1999.90;999.90;;;6.80;99.90;;;;;;5014444;28;20173;-68
2023/02/20 00:52:04;;;;;;;1999.90;999.90;;;6.80;99.90;;;;;;5014164;28;20183;-68
2023/02/20 00:54:29;;;;;;;1999.90;999.90;;;6.80;99.90;;;;;;5014360;28;20537;-68
2023/02/20 00:56:55;;;;;;;1999.90;999.90;;;6.70;99.90;;;;;;5014176;28;20223;-68
2023/02/20 00:59:20;;;;;;;1999.90;999.90;;;6.70;99.90;;;;;;5014282;28;20172;-68
2023/02/20 01:01:46;;;;;;;1999.90;999.90;;;6.70;99.90;;;;;;5013964;28;20197;-68
2023/02/20 01:04:12;;;;;;;1999.90;999.90;;;6.70;99.90;;;;;;5014078;28;20227;-68
2023/02/20 01:06:37;;;;;;;1999.90;999.90;;;6.60;99.90;;;;;;5013830;28;20188;-68
2023/02/20 01:09:03;;;;;;;1999.90;999.90;;;6.60;99.90;;;;;;5013619;28;20165;-68
2023/02/20 01:11:28;;;;;;;1999.90;999.90;;;6.60;99.90;;;;;;5013821;28;20173;-68
2023/02/20 01:13:54;;;;;;;1999.90;999.90;;;6.60;99.90;;;;;;5014030;28;20253;-68
2023/02/20 01:16:20;;;;;;;1999.90;999.90;;;6.60;99.90;;;;;;5013692;28;20557;-69
2023/02/20 01:18:49;;;;;;;1999.90;999.90;;;6.60;99.90;;;;;;5013863;28;20169;-67
2023/02/20 01:21:15;;;;;;;1999.90;999.90;;;6.60;99.90;;;;;;5013807;28;20231;-67
2023/02/20 01:23:40;;;;;;;1999.90;999.90;;;6.60;99.90;;;;;;5013729;28;20828;-68
2023/02/20 01:26:06;;;;;;;1999.90;999.90;;;6.60;99.90;;;;;;5013593;28;20235;-68
2023/02/20 01:28:32;;;;;;;1999.90;999.90;;;6.70;99.90;;;;;;5013780;28;20173;-67
2023/02/20 01:30:57;;;;;;;1999.90;999.90;;;6.80;99.90;;;;;;5013596;28;20173;-68
2023/02/20 01:33:23;;;;;;;1999.90;999.90;;;6.70;99.90;;;;;;5013579;28;20624;-68
2023/02/20 01:35:48;;;;;;;1999.90;999.90;;;6.70;99.90;;;;;;5013506;28;20254;-67
2023/02/20 01:38:14;;;;;;;1999.90;999.90;;;6.70;99.90;;;;;;5013637;28;20264;-67
2023/02/20 01:40:47;;;;;;;1999.90;999.90;;;6.70;99.90;;;;;;5013317;28;20654;-67
2023/02/20 01:43:13;;;;;;;1999.90;999.90;;;6.70;99.90;;;;;;5013454;28;20291;-67
2023/02/20 01:45:39;;;;;;;1999.90;999.90;;;6.70;99.90;;;;;;5013243;28;20536;-68
2023/02/20 01:48:05;;;;;;;1999.90;999.90;;;6.60;99.90;;;;;;5013313;28;20410;-68
2023/02/20 01:50:42;;;;;;;1999.90;999.90;;;6.70;99.90;;;;;;5013095;28;20404;-68
2023/02/20 01:53:12;;;;;;;1999.90;999.90;;;6.70;99.90;;;;;;5013310;28;20268;-67
2023/02/20 01:55:54;;;;;;;1999.90;999.90;;;6.70;99.90;;;;;;5013224;28;20434;-67
2023/02/20 01:58:22;;;;;;;1999.90;999.90;;;6.80;99.90;;;;;;5013241;28;20408;-68
2023/02/20 02:00:48;;;;;;;1999.90;999.90;;;6.70;99.90;;;;;;5013015;28;20495;-67
2023/02/20 02:03:27;;;;;;;1999.90;999.90;;;6.70;99.90;;;;;;5013199;28;20546;-67
2023/02/20 02:06:01;;;;;;;1999.90;999.90;;;6.70;99.90;;;;;;5012981;28;20419;-67
2023/02/20 02:08:28;;;;;;;1999.90;999.90;;;6.70;99.90;;;;;;5013067;28;20507;-68
2023/02/20 02:11:00;;;;;;;1999.90;999.90;;;6.70;99.90;;;;;;5012733;28;20443;-67
2023/02/20 02:13:27;;;;;;;1999.90;999.90;;;6.80;99.90;;;;;;5012935;28;20496;-67
2023/02/20 02:16:10;;;;;;;1999.90;999.90;;;6.70;99.90;;;;;;5012609;28;20964;-67
2023/02/20 02:18:54;;;;;;;1999.90;999.90;;;6.70;99.90;;;;;;5012348;28;20427;-68
2023/02/20 02:21:40;;;;;;;1999.90;999.90;;;6.60;99.90;;;;;;5012477;28;20419;-69
2023/02/20 02:24:27;;;;;;;1999.90;999.90;;;6.60;99.90;;;;;;5012786;28;20506;-67
2023/02/20 02:27:16;;;;;;;1999.90;999.90;;;6.60;99.90;;;;;;5012605;28;20921;-67
2023/02/20 02:29:58;;;;;;;1999.90;999.90;;;6.60;99.90;;;;;;5003402;28;20497;-67
2023/02/20 02:32:23;;;;;;;1999.90;999.90;;;6.60;99.90;;;;;;5012449;28;20408;-67
2023/02/20 02:34:51;;;;;;;1999.90;999.90;;;6.50;99.90;;;;;;5012588;28;20412;-67
2023/02/20 02:37:45;;;;;;;1999.90;999.90;;;6.60;99.90;;;;;;5012449;28;20169;-67
2023/02/20 02:40:26;;;;;;;1999.90;999.90;;;6.50;99.90;;;;;;5012917;28;20466;-68
2023/02/20 02:43:07;;;;;;;1999.90;999.90;;;6.50;99.90;;;;;;5012400;28;20451;-68
2023/02/20 02:45:50;;;;;;;1999.90;999.90;;;6.50;99.90;;;;;;5012388;28;20507;-68
2023/02/20 02:48:19;;;;;;;1999.90;999.90;;;6.60;99.90;;;;;;5012318;28;20408;-68
2023/02/20 02:50:47;;;;;;;1999.90;999.90;;;6.60;99.90;;;;;;5012420;28;20435;-68
2023/02/20 02:53:14;;;;;;;1999.90;999.90;;;6.60;99.90;;;;;;5012378;28;20894;-68
2023/02/20 02:55:40;;;;;;;1999.90;999.90;;;6.50;99.90;;;;;;5012200;28;20805;-68
2023/02/20 02:58:07;;;;;;;1999.90;999.90;;;6.60;99.90;;;;;;5011992;28;20443;-68
2023/02/20 03:00:55;;;;;;;1999.90;999.90;;;6.60;99.90;;;;;;5011913;28;20408;-68
2023/02/20 03:03:32;;;;;;;1999.90;999.90;;;6.50;99.90;;;;;;5011575;28;20470;-68
2023/02/20 03:06:07;;;;;;;1999.90;999.90;;;6.60;99.90;;;;;;5012041;28;20455;-68
2023/02/20 03:08:45;;;;;;;1999.90;999.90;;;6.60;99.90;;;;;;5012174;28;20439;-68
2023/02/20 03:11:12;;;;;;;1999.90;999.90;;;6.60;99.90;;;;;;5011995;28;20419;-68
2023/02/20 03:16:36;;;;;;;1999.90;999.90;;;6.70;99.90;;;;;;5012048;28;20501;-69
2023/02/20 03:19:12;;;;;;;1999.90;999.90;;;6.60;99.90;;;;;;5012093;28;20411;-69
2023/02/20 03:21:42;;;;;;;1999.90;999.90;;;6.60;99.90;;;;;;5011683;28;20455;-67
2023/02/20 03:24:09;;;;;;;1999.90;999.90;;;6.60;99.90;;;;;;5012241;28;20485;-67
2023/02/20 03:26:36;;;;;;;1999.90;999.90;;;6.60;99.90;;;;;;5011855;28;20424;-68
2023/02/20 03:29:10;;;;;;;1999.90;999.90;;;6.60;99.90;;;;;;5012025;28;20500;-67
2023/02/20 03:31:49;;;;;;;1999.90;999.90;;;6.70;99.90;;;;;;5014516;28;20886;-70
2023/02/20 03:45:37;;;;;;;1999.90;999.90;;;6.70;99.90;;;;;;5015926;28;20450;-68
2023/02/20 03:48:08;;;;;;;1999.90;999.90;;;6.70;99.90;;;;;;5015521;28;20427;-67
2023/02/20 03:50:40;;;;;;;1999.90;999.90;;;6.80;99.90;;;;;;5015410;28;20486;-68
2023/02/20 03:53:06;;;;;;;1999.90;999.90;;;6.80;99.90;;;;;;5015588;28;20878;-68
2023/02/20 03:55:31;;;;;;;1999.90;999.90;;;6.80;99.90;;;;;;5015411;28;20443;-67
2023/02/20 03:58:01;;;;;;;1999.90;999.90;;;6.80;99.90;;;;;;5015581;28;20260;-67
2023/02/20 04:00:31;;;;;;;1999.90;999.90;;;6.80;99.90;;;;;;5015203;28;20407;-68
2023/02/20 04:03:03;;;;;;;1999.90;999.90;;;6.80;99.90;;;;;;5015120;28;20444;-67
2023/02/20 04:05:34;;;;;;;1999.90;999.90;;;6.80;99.90;;;;;;5015258;28;20455;-67
2023/02/20 04:08:14;;;;;;;1999.90;999.90;;;6.80;99.90;;;;;;5015413;28;20487;-67
2023/02/20 04:10:50;;;;;;;1999.90;999.90;;;6.80;99.90;;;;;;5015056;28;20403;-69
2023/02/20 04:13:17;;;;;;;1999.90;999.90;;;6.80;99.90;;;;;;5015265;28;20399;-69
2023/02/20 04:15:44;;;;;;;1999.90;999.90;;;6.80;99.90;;;;;;5014812;28;20451;-67
2023/02/20 04:18:17;;;;;;;1999.90;999.90;;;6.80;99.90;;;;;;5014984;28;20407;-67
2023/02/20 04:20:43;;;;;;;1999.90;999.90;;;6.70;99.90;;;;;;5014826;28;20415;-68
2023/02/20 04:23:15;;;;;;;1999.90;999.90;;;6.70;99.90;;;;;;5014904;28;20481;-67
2023/02/20 04:25:49;;;;;;;1999.90;999.90;;;6.70;99.90;;;;;;5014777;28;20416;-68
2023/02/20 04:28:16;;;;;;;1999.90;999.90;;;6.70;99.90;;;;;;5014912;28;20923;-68
2023/02/20 04:30:42;;;;;;;1999.90;999.90;;;6.70;99.90;;;;;;5014602;28;20886;-67
2023/02/20 04:33:13;;;;;;;1999.90;999.90;;;6.60;99.90;;;;;;5014817;28;20415;-68
2023/02/20 04:35:39;;;;;;;1999.90;999.90;;;6.60;99.90;;;;;;5014345;28;20889;-69
2023/02/20 04:38:05;;;;;;;1999.90;999.90;;;6.60;99.90;;;;;;5014680;28;20499;-67
2023/02/20 04:40:31;;;;;;;1999.90;999.90;;;6.60;99.90;;;;;;5014494;28;20533;-69
2023/02/20 04:42:56;;;;;;;1999.90;999.90;;;6.50;99.90;;;;;;5013532;28;20452;-67
2023/02/20 04:45:22;;;;;;;1999.90;999.90;;;6.50;99.90;;;;;;5014492;28;20662;-67
2023/02/20 04:47:48;;;;;;;1999.90;999.90;;;6.40;99.90;;;;;;5014566;28;20205;-67
2023/02/20 04:50:25;;;;;;;1999.90;999.90;;;6.40;99.90;;;;;;5014473;28;20176;-68
2023/02/20 04:52:51;;;;;;;1999.90;999.90;;;6.40;99.90;;;;;;5014460;28;20169;-69
2023/02/20 04:55:19;;;;;;;1999.90;999.90;;;6.40;99.90;;;;;;5014251;28;20850;-69
2023/02/20 04:57:45;;;;;;;1999.90;999.90;;;6.40;99.90;;;;;;5014504;28;20440;-69
2023/02/20 05:00:11;;;;;;;1999.90;999.90;;;6.40;99.90;;;;;;5014274;28;20952;-69
2023/02/20 05:02:38;;;;;;;1999.90;999.90;;;6.40;99.90;;;;;;5014065;28;20491;-69
2023/02/20 05:05:05;;;;;;;1999.90;999.90;;;6.50;99.90;;;;;;5014219;28;20436;-69
2023/02/20 05:07:31;;;;;;;1999.90;999.90;;;6.50;99.90;;;;;;5013987;28;20411;-69
2023/02/20 05:09:56;;;;;;;1999.90;999.90;;;6.60;99.90;;;;;;5014065;28;20415;-69
2023/02/20 05:12:22;;;;;;;1999.90;999.90;;;6.50;99.90;;;;;;5013855;28;20510;-69
2023/02/20 05:14:48;;;;;;;1999.90;999.90;;;6.80;99.90;;;;;;5013716;28;20177;-69
2023/02/20 05:17:13;;;;;;;1999.90;999.90;;;6.50;99.90;;;;;;5013875;28;20185;-69
2023/02/20 05:19:39;;;;;;;1999.90;999.90;;;6.50;99.90;;;;;;5013915;28;20538;-69
2023/02/20 05:22:19;;;;;;;1999.90;999.90;;;6.50;99.90;;;;;;5013572;28;20271;-69
2023/02/20 05:24:46;;;;;;;1999.90;999.90;;;6.60;99.90;;;;;;5013730;28;20239;-69
2023/02/20 05:27:14;;;;;;;1999.90;999.90;;;6.50;99.90;;;;;;5013852;28;20476;-69
2023/02/20 05:29:48;;;;;;;1999.90;999.90;;;6.50;99.90;;;;;;5013657;28;20408;-69
2023/02/20 05:32:15;;;;;;;1999.90;999.90;;;6.50;99.90;;;;;;5013691;28;20408;-69
2023/02/20 05:34:42;;;;;;;1999.90;999.90;;;6.50;99.90;;;;;;5013649;28;20424;-69
2023/02/20 05:37:07;;;;;;;1999.90;999.90;;;6.50;99.90;;;;;;5013491;28;20419;-69
2023/02/20 05:39:33;;;;;;;1999.90;999.90;;;6.50;99.90;;;;;;5013619;28;20404;-69
2023/02/20 05:41:58;;;;;;;1999.90;999.90;;;6.50;99.90;;;;;;5013192;28;20304;-69
2023/02/20 05:44:24;;;;;;;1999.90;999.90;;;6.50;99.90;;;;;;5013538;28;20169;-69
2023/02/20 05:46:49;;;;;;;1999.90;999.90;;;6.60;99.90;;;;;;5013142;28;20242;-69
2023/02/20 05:49:16;;;;;;;1999.90;999.90;;;6.60;99.90;;;;;;5013326;28;20177;-69
2023/02/20 05:51:42;;;;;;;1999.90;999.90;;;6.60;99.90;;;;;;5013089;28;20219;-69
2023/02/20 05:54:08;;;;;;;1999.90;999.90;;;6.70;99.90;;;;;;5013176;28;20404;-69
2023/02/20 05:56:34;;;;;;;1999.90;999.90;;;6.70;99.90;;;;;;5013049;28;20502;-69
2023/02/20 05:59:00;;;;;;;1999.90;999.90;;;6.70;99.90;;;;;;5013219;28;20532;-69
2023/02/20 06:01:29;;;;;;;1999.90;999.90;;;6.80;99.90;;;;;;5013112;28;20643;-69
2023/02/20 06:03:55;;;;;;;1999.90;999.90;;;6.80;99.90;;;;;;5013078;28;20566;-69
2023/02/20 06:06:21;;;;;;;1999.90;999.90;;;6.90;99.90;;;;;;5012805;28;20503;-69
2023/02/20 06:08:47;;;;;;;1999.90;999.90;;;6.90;99.90;;;;;;5012935;28;20408;-69
2023/02/20 06:11:13;;;;;;;1999.90;999.90;;;6.90;99.90;;;;;;5013028;28;20483;-69
2023/02/20 06:13:44;;;;;;;1999.90;999.90;;;6.90;99.90;;;;;;5012939;28;20482;-69
2023/02/20 06:16:10;;;;;;;1999.90;999.90;;;6.90;99.90;;;;;;5012347;28;20471;-69
2023/02/20 06:18:41;;;;;;;1999.90;999.90;;;6.90;99.90;;;;;;5012818;28;20426;-69
2023/02/20 06:21:10;;;;;;;1999.90;999.90;;;7.00;99.90;;;;;;5012688;28;20418;-69
2023/02/20 06:23:41;;;;;;;1999.90;999.90;;;7.00;99.90;;;;;;5012692;28;20460;-69
2023/02/20 06:26:08;;;;;;;1999.90;999.90;;;7.00;99.90;;;;;;5012659;28;20423;-69
2023/02/20 06:28:34;;;;;;;1999.90;999.90;;;7.00;99.90;;;;;;5012694;28;20412;-69
2023/02/20 06:30:59;;;;;;;1999.90;999.90;;;7.00;99.90;;;;;;5012430;28;20412;-69
2023/02/20 06:33:25;;;;;;;1999.90;999.90;;;7.00;99.90;;;;;;5012583;28;20412;-69
2023/02/20 06:35:51;;;;;;;1999.90;999.90;;;7.00;99.90;;;;;;5012622;28;20224;-69
2023/02/20 06:38:16;;;;;;;1999.90;999.90;;;7.00;99.90;;;;;;5012587;28;20176;-69
2023/02/20 06:40:42;;;;;;;1999.90;999.90;;;7.00;99.90;;;;;;5012304;28;20177;-69
2023/02/20 06:43:08;;;;;;;1999.90;999.90;;;6.90;99.90;;;;;;5012465;28;20211;-69
2023/02/20 06:45:33;;;;;;;1999.90;999.90;;;7.00;99.90;;;;;;5012385;28;20568;-70
2023/02/20 06:47:59;;;;;;;1999.90;999.90;;;7.00;99.90;;;;;;5012245;28;20166;-69
2023/02/20 06:50:25;;;;;;;1999.90;999.90;;;6.90;99.90;;;;;;5012347;28;20173;-69
2023/02/20 06:52:50;;;;;;;1999.90;999.90;;;7.00;99.90;;;;;;5012439;28;20635;-69
2023/02/20 06:55:16;;;;;;;1999.90;999.90;;;7.00;99.90;;;;;;5012271;28;20952;-69
2023/02/20 06:57:41;;;;;;;1999.90;999.90;;;7.00;99.90;;;;;;5012205;28;20173;-69
2023/02/20 07:00:08;;;;;;;1999.90;999.90;;;7.00;99.90;;;;;;5012262;28;20204;-69
2023/02/20 07:02:35;;;;;;;1999.90;999.90;;;7.00;99.90;;;;;;5012012;28;20247;-69
2023/02/20 07:05:02;;;;;;;1999.90;999.90;;;6.90;99.90;;;;;;5011573;28;20423;-68
2023/02/20 07:07:28;;;;;;;1999.90;999.90;;;6.90;99.90;;;;;;5012055;28;20420;-68
2023/02/20 07:09:54;;;;;;;1999.90;999.90;;;6.90;99.90;;;;;;5012163;28;20500;-68
2023/02/20 07:12:19;;;;;;;1999.90;999.90;;;6.90;99.90;;;;;;5011868;28;20207;-68
2023/02/20 07:14:45;;;;;;;1999.90;999.90;;;6.80;99.90;;;;;;5011934;28;20177;-68
2023/02/20 07:17:10;;;;;;;1999.90;999.90;;;6.80;99.90;;;;;;5012046;28;20177;-68
2023/02/20 07:19:36;;;;;;;1999.90;999.90;;;6.80;99.90;;;;;;5012206;28;20658;-68
2023/02/20 07:22:02;;;;;;;1999.90;999.90;;;6.70;99.90;;;;;;5011914;28;20201;-68
2023/02/20 07:24:27;;;;;;;1999.90;999.90;;;6.60;99.90;;;;;;5012109;28;20226;-68
2023/02/20 07:26:53;;;;;;;1999.90;999.90;;;6.60;99.90;;;;;;5011798;28;20188;-68
2023/02/20 07:29:18;;;;;;;1999.90;999.90;;;6.50;99.90;;;;;;5012023;28;20661;-69
2023/02/20 07:31:44;;;;;;;1999.90;999.90;;;6.50;99.90;;;;;;5011708;28;20820;-68
2023/02/20 07:34:10;;;;;;;1999.90;999.90;;;6.40;99.90;;;;;;5012017;28;20180;-69
2023/02/20 07:36:35;;;;;;;1999.90;999.90;;;6.40;99.90;;;;;;5011629;28;20193;-70
2023/02/20 07:39:05;;;;;;;1999.90;999.90;;;6.40;99.90;;;;;;5011907;28;20239;-69
2023/02/20 07:41:33;;;;;;;1999.90;999.90;;;6.30;99.90;;;;;;5011756;28;20173;-69
2023/02/20 07:43:59;;;;;;;1999.90;999.90;;;6.30;99.90;;;;;;5011813;28;20407;-69
2023/02/20 07:46:25;;;;;;;1999.90;999.90;;;6.30;99.90;;;;;;5011653;28;20420;-69
2023/02/20 07:48:52;;;;;;;1999.90;999.90;;;6.30;99.90;;;;;;5012175;28;20658;-68
2023/02/20 07:51:17;;;;;;;1999.90;999.90;;;6.30;99.90;;;;;;5012019;28;20659;-69
2023/02/20 07:53:50;;;;;;;1999.90;999.90;;;6.30;99.90;;;;;;5012220;28;20512;-68
2023/02/20 07:56:17;;;;;;;1999.90;999.90;;;6.20;99.90;;;;;;5011898;28;20200;-68
2023/02/20 07:58:42;;;;;;;1999.90;999.90;;;6.10;99.90;;;;;;5011724;28;20898;-68
2023/02/20 08:01:08;;;;;;;1999.90;999.90;;;6.10;99.90;;;;;;5011403;28;20442;-68
2023/02/20 08:03:33;;;;;;;1999.90;999.90;;;6.10;99.90;;;;;;5011625;28;20254;-68
2023/02/20 08:05:59;;;;;;;1999.90;999.90;;;6.10;99.90;;;;;;5011461;28;20681;-68
2023/02/20 08:08:25;;;;;;;1999.90;999.90;;;6.20;99.90;;;;;;5011647;28;20169;-68
2023/02/20 08:10:51;;;;;;;1999.90;999.90;;;6.20;99.90;;;;;;5011400;28;20192;-68
2023/02/20 08:13:17;;;;;;;1999.90;999.90;;;6.30;99.90;;;;;;5011525;28;20536;-68
2023/02/20 08:15:43;;;;;;;1999.90;999.90;;;6.30;99.90;;;;;;5011188;28;20452;-68
2023/02/20 08:18:09;;;;;;;1999.90;999.90;;;6.40;99.90;;;;;;5013356;28;20813;-68
2023/02/20 08:20:35;;;;;;;1999.90;999.90;;;6.40;99.90;;;;;;5014891;28;20501;-68
2023/02/20 08:23:01;;;;;;;1999.90;999.90;;;6.40;99.90;;;;;;5014842;28;20968;-68
2023/02/20 08:25:26;;;;;;;1999.90;999.90;;;6.40;99.90;;;;;;5014856;28;20181;-68
2023/02/20 08:27:52;;;;;;;1999.90;999.90;;;6.40;99.90;;;;;;5014716;28;20175;-68
2023/02/20 08:30:22;;;;;;;1999.90;999.90;;;6.40;99.90;;;;;;5014872;28;20664;-68
2023/02/20 08:32:53;;;;;;;1999.90;999.90;;;6.40;99.90;;;;;;5014842;28;20173;-68
2023/02/20 08:35:19;;;;;;;1999.90;999.90;;;6.40;99.90;;;;;;5014779;28;20998;-68
2023/02/20 08:37:45;;;;;;;1999.90;999.90;;;6.40;99.90;;;;;;5014659;28;20416;-68
2023/02/20 08:40:11;;;;;;;1999.90;999.90;;;6.40;99.90;;;;;;5015018;28;20512;-70
2023/02/20 08:42:37;;;;;;;1999.90;999.90;;;6.50;99.90;;;;;;5014487;28;20866;-68
2023/02/20 08:45:04;;;;;;;1999.90;999.90;;;6.50;99.90;;;;;;5014771;28;20428;-70
2023/02/20 08:47:30;;;;;;;1999.90;999.90;;;6.50;99.90;;;;;;5014753;28;20670;-67
2023/02/20 08:49:56;;;;;;;1999.90;999.90;;;6.60;99.90;;;;;;5014750;28;20432;-67
2023/02/20 08:52:21;;;;;;;1999.90;999.90;;;6.70;99.90;;;;;;5014439;28;20173;-69
2023/02/20 08:54:47;;;;;;;1999.90;999.90;;;6.70;99.90;;;;;;5014376;28;20181;-68
2023/02/20 08:57:14;;;;;;;1999.90;999.90;;;6.80;99.90;;;;;;5014275;28;20220;-70
2023/02/20 08:59:40;;;;;;;1999.90;999.90;;;6.80;99.90;;;;;;5014607;28;20184;-68
2023/02/20 09:02:06;;;;;;;1999.90;999.90;;;6.90;99.90;;;;;;5014305;28;20444;-68
2023/02/20 09:04:31;;;;;;;1999.90;999.90;;;6.90;99.90;;;;;;5014458;28;20185;-68
2023/02/20 09:06:57;;;;;;;1999.90;999.90;;;6.90;99.90;;;;;;5014149;28;20992;-69
2023/02/20 09:09:23;;;;;;;1999.90;999.90;;;7.00;99.90;;;;;;5014445;28;20169;-68
2023/02/20 09:11:48;;;;;;;1999.90;999.90;;;7.00;99.90;;;;;;5014075;28;20790;-68
2023/02/20 09:14:14;;;;;;;1999.90;999.90;;;7.10;99.90;;;;;;5014076;28;20169;-68
2023/02/20 09:16:41;;;;;;;1999.90;999.90;;;7.20;99.90;;;;;;5013916;28;20198;-68
2023/02/20 09:19:09;;;;;;;1999.90;999.90;;;7.20;99.90;;;;;;5014167;28;20197;-68
2023/02/20 09:21:37;;;;;;;1999.90;999.90;;;7.30;99.90;;;;;;5013888;28;20400;-68
2023/02/20 09:24:04;;;;;;;1999.90;999.90;;;7.30;99.90;;;;;;5013966;28;20416;-68
2023/02/20 09:26:30;;;;;;;1999.90;999.90;;;7.40;99.90;;;;;;5013713;28;20432;-69
2023/02/20 09:28:55;;;;;;;1999.90;999.90;;;7.50;99.90;;;;;;5013423;28;20489;-68
2023/02/20 09:31:21;;;;;;;1999.90;999.90;;;7.50;99.90;;;;;;5013742;28;20180;-68
2023/02/20 09:33:47;;;;;;;1999.90;999.90;;;7.60;99.90;;;;;;5013852;28;20259;-68
2023/02/20 09:36:12;;;;;;;1999.90;999.90;;;7.50;99.90;;;;;;5013590;28;20704;-68
2023/02/20 09:38:38;;;;;;;1999.90;999.90;;;7.60;99.90;;;;;;5013609;28;20631;-69
2023/02/20 09:41:04;;;;;;;1999.90;999.90;;;7.60;99.90;;;;;;5013429;28;20187;-68
2023/02/20 09:43:35;;;;;;;1999.90;999.90;;;7.60;99.90;;;;;;5013577;28;20608;-68
2023/02/20 09:46:11;;;;;;;1999.90;999.90;;;7.70;99.90;;;;;;5002394;28;20440;-68
2023/02/20 09:48:57;;;;;;;1999.90;999.90;;;7.80;99.90;;;;;;4993824;28;20422;-68
2023/02/20 09:51:26;;;;;;;1999.90;999.90;;;7.80;99.90;;;;;;4993510;28;20419;-69
2023/02/20 09:54:12;;;;;;;1999.90;999.90;;;7.90;99.90;;;;;;4993740;28;20402;-68
2023/02/20 09:56:41;;;;;;;1999.90;999.90;;;8.00;99.90;;;;;;4993617;28;20433;-68
2023/02/20 09:59:17;;;;;;;1999.90;999.90;;;8.00;99.90;;;;;;4993587;28;20415;-68
2023/02/20 10:02:00;;;;;;;1999.90;999.90;;;8.10;99.90;;;;;;4993425;28;20452;-68
2023/02/20 10:05:01;;;;;;;1999.90;999.90;;;8.20;99.90;;;;;;4993838;28;20508;-68
2023/02/20 10:07:36;;;;;;;1999.90;999.90;;;8.20;99.90;;;;;;4972016;28;20931;-69
2023/02/20 10:10:26;;;;;;;1999.90;999.90;;;8.30;99.90;;;;;;4993454;28;20408;-68
2023/02/20 10:13:27;;;;;;;1999.90;999.90;;;8.30;99.90;;;;;;4993472;28;20416;-68
2023/02/20 10:15:58;;;;;;;1999.90;999.90;;;8.30;99.90;;;;;;4992718;28;20547;-69
2023/02/20 10:18:58;;;;;;;1999.90;999.90;;;8.40;99.90;;;;;;4993206;28;20444;-69
2023/02/20 10:21:43;;;;;;;1999.90;999.90;;;8.40;99.90;;;;;;4993138;28;20411;-69
2023/02/20 10:24:17;;;;;;;1999.90;999.90;;;8.50;99.90;;;;;;4993173;28;20414;-68
2023/02/20 10:26:48;;;;;;;1999.90;999.90;;;8.60;99.90;;;;;;4993014;28;20469;-68
2023/02/20 10:29:19;;;;;;;1999.90;999.90;;;8.70;99.90;;;;;;4993235;28;20397;-69
2023/02/20 10:31:50;;;;;;;1999.90;999.90;;;8.70;99.90;;;;;;4992890;28;20393;-69
2023/02/20 10:34:23;;;;;;;1999.90;999.90;;;8.80;99.90;;;;;;4993051;28;20390;-69
2023/02/20 10:36:54;;;;;;;1999.90;999.90;;;8.90;99.90;;;;;;4992887;28;20447;-68
2023/02/20 10:39:21;;;;;;;1999.90;999.90;;;9.00;99.90;;;;;;4992750;28;20394;-69
2023/02/20 10:42:05;;;;;;;1999.90;999.90;;;9.10;99.90;;;;;;4992065;28;20444;-68
2023/02/20 10:44:53;;;;;;;1999.90;999.90;;;9.10;99.90;;;;;;4992910;28;20403;-68
2023/02/20 10:47:25;;;;;;;1999.90;999.90;;;9.20;99.90;;;;;;4992747;28;20442;-68
2023/02/20 10:50:11;;;;;;;1999.90;999.90;;;9.20;99.90;;;;;;4992856;28;20393;-67
2023/02/20 10:52:50;;;;;;;1999.90;999.90;;;9.30;99.90;;;;;;4992601;28;20430;-67
2023/02/20 10:55:19;;;;;;;1999.90;999.90;;;9.40;99.90;;;;;;4992648;28;20424;-68
2023/02/20 10:57:49;;;;;;;1999.90;999.90;;;9.40;99.90;;;;;;4992355;28;20904;-68
2023/02/20 11:00:24;;;;;;;1999.90;999.90;;;9.60;99.90;;;;;;4992639;28;20426;-69
2023/02/20 11:03:05;;;;;;;1999.90;999.90;;;9.70;99.90;;;;;;4992442;28;21035;-67
2023/02/20 11:05:38;;;;;;;1999.90;999.90;;;9.80;99.90;;;;;;4992590;28;20516;-68
2023/02/20 11:08:04;;;;;;;1999.90;999.90;;;9.90;99.90;;;;;;4992552;28;20821;-69
2023/02/20 11:10:31;;;;;;;1999.90;999.90;;;9.80;99.90;;;;;;4992401;28;20407;-68
2023/02/20 11:13:01;;;;;;;1999.90;999.90;;;9.80;99.90;;;;;;4992748;28;20548;-68
2023/02/20 11:15:33;;;;;;;1999.90;999.90;;;9.80;99.90;;;;;;4992517;28;20458;-68
2023/02/20 11:17:59;;;;;;;1999.90;999.90;;;9.80;99.90;;;;;;4992390;28;20411;-69
2023/02/20 11:20:31;;;;;;;1999.90;999.90;;;9.70;99.90;;;;;;4992574;28;20452;-68
2023/02/20 11:23:00;;;;;;;1999.90;999.90;;;9.60;99.90;;;;;;4992309;28;20540;-68
2023/02/20 11:25:29;;;;;;;1999.90;999.90;;;9.70;99.90;;;;;;4991227;28;20797;-68
2023/02/20 11:28:08;;;;;;;1999.90;999.90;;;9.70;99.90;;;;;;4992557;28;20809;-67
2023/02/20 11:30:37;;;;;;;1999.90;999.90;;;9.80;99.90;;;;;;4991042;28;20407;-67
2023/02/20 11:33:11;;;;;;;1999.90;999.90;;;10.00;99.90;;;;;;4992400;28;20776;-69
2023/02/20 11:35:42;;;;;;;1999.90;999.90;;;10.10;99.90;;;;;;4992276;28;20504;-68
2023/02/20 11:38:21;;;;;;;1999.90;999.90;;;10.20;99.90;;;;;;4992104;28;20411;-69
2023/02/20 11:40:55;;;;;;;1999.90;999.90;;;10.20;99.90;;;;;;4991865;28;20467;-69
2023/02/20 11:43:39;;;;;;;1999.90;999.90;;;10.40;99.90;;;;;;4992244;28;20460;-70
2023/02/20 11:46:22;;;;;;;1999.90;999.90;;;10.70;99.90;;;;;;4992169;28;20467;-68
2023/02/20 11:49:06;;;;;;;1999.90;999.90;;;11.00;99.90;;;;;;4992402;28;20422;-67
2023/02/20 11:51:35;;;;;;;1999.90;999.90;;;11.40;99.90;;;;;;4993072;28;20426;-68
2023/02/20 11:54:17;;;;;;;1999.90;999.90;;;11.60;99.90;;;;;;4993049;28;20411;-67
2023/02/20 11:57:19;;;;;;;1999.90;999.90;;;11.60;99.90;;;;;;4996488;28;20425;-68
2023/02/20 11:59:49;;;;;;;1999.90;999.90;;;11.50;99.90;;;;;;5015206;28;20406;-68
2023/02/20 12:02:15;;;;;;;1999.90;999.90;;;11.20;99.90;;;;;;5014296;28;20545;-67
2023/02/20 12:04:58;;;;;;;1999.90;999.90;;;11.30;99.90;;;;;;5014868;28;20447;-68
2023/02/20 12:07:29;;;;;;;1999.90;999.90;;;11.50;99.90;;;;;;5014883;28;20168;-67
2023/02/20 12:10:09;;;;;;;1999.90;999.90;;;11.70;99.90;;;;;;5014922;28;20409;-68
2023/02/20 12:12:35;;;;;;;1999.90;999.90;;;11.80;99.90;;;;;;5014866;28;20429;-67
2023/02/20 12:15:01;;;;;;;1999.90;999.90;;;11.70;99.90;;;;;;5014315;28;20521;-68
2023/02/20 12:17:33;;;;;;;1999.90;999.90;;;11.60;99.90;;;;;;5014790;28;20635;-68
2023/02/20 12:20:06;;;;;;;1999.90;999.90;;;11.30;99.90;;;;;;5014785;28;20411;-68
2023/02/20 12:22:36;;;;;;;1999.90;999.90;;;11.20;99.90;;;;;;5014197;28;20453;-68
2023/02/20 12:25:29;;;;;;;1999.90;999.90;;;11.10;99.90;;;;;;5014825;28;20407;-69
2023/02/20 12:28:24;;;;;;;1999.90;999.90;;;10.80;99.90;;;;;;5014556;28;20410;-68
2023/02/20 12:31:19;;;;;;;1999.90;999.90;;;10.60;99.90;;;;;;5014097;28;20396;-69
2023/02/20 12:34:14;;;;;;;1999.90;999.90;;;10.50;99.90;;;;;;5014507;28;20897;-69
2023/02/20 12:36:51;;;;;;;1999.90;999.90;;;10.50;99.90;;;;;;4997513;28;20438;-70